• Join FlightAware (Why Join?)
  • Login
  • US Flag 
12:37PM EST


 

Airport Tracker/Info


-or-


 

Live Flight TrackerFlight Track Log ✈ EJM68 ✈ 15-Sep-2013 ✈ KMIA - KMDW

Flight Track Log - Related Links

Times and Time Zones

All times are in EDT time to prevent confusion due to time zone crossing. See the EJM68 flight status page for this flight to view local times or setup timezone preferences in your user account.

Time Position Orientation Groundspeed Altitude Reporting Facility
EDT Latitude Longitude Course Direction KTS MPH feet Rate Location/Type
04:47PM 25.8003 -80.2744 84° East 151 174 800  Level Miami Center
04:49PM 25.8086 -80.1825 84° East 214 246 4,800 2,400 Climbing Miami Center
04:50PM 25.8472 -80.1350 48° Northeast 270 311 7,000 1,080 Climbing Miami Center
04:51PM 25.9306 -80.1467 353° North 288 331 7,100 480 Climbing Miami Center
04:51PM 25.9719 -80.1639 339° North 282 325 7,800 2,880 Climbing Miami Center
04:52PM 26.0272 -80.2117 322° Northwest 318 366 11,400 2,700 Climbing Miami Center
04:53PM 26.0969 -80.2692 323° Northwest 313 360 13,200 1,860 Climbing Miami Center
04:54PM 26.1708 -80.3222 327° Northwest 313 360 15,200 2,100 Climbing Miami Center
04:55PM 26.2489 -80.3822 325° Northwest 330 380 17,400 2,400 Climbing Miami Center
04:56PM 26.3328 -80.4497 324° Northwest 335 386 20,000 2,220 Climbing Miami Center
04:57PM 26.4025 -80.5053 324° Northwest 335 386 21,900 1,860 Climbing Miami Center
04:58PM 26.4967 -80.5778 325° Northwest 354 407 23,800 1,800 Climbing Miami Center
04:59PM 26.5744 -80.6383 325° Northwest 376 433 25,600 1,800 Climbing Miami Center
05:00PM 26.6728 -80.7133 326° Northwest 381 438 27,500 1,620 Climbing Miami Center
05:02PM 26.7945 -80.8072 325° Northwest  Level FlightAware Approximate
05:02PM 26.8528 -80.8544 325° Northwest 395 455 30,600  Level Miami Center
05:03PM 26.9447 -80.9250 326° Northwest 400 460 31,900 1,380 Climbing Miami Center
05:04PM 27.0428 -81.0008 325° Northwest 406 467 33,400 1,500 Climbing Miami Center
05:05PM 27.1183 -81.0572 326° Northwest 411 473 35,000 1,500 Climbing Miami Center
05:06PM 27.2206 -81.1356 326° Northwest 411 473 36,500 1,260 Climbing Miami Center
05:07PM 27.3244 -81.2189 325° Northwest 416 479 37,600 960 Climbing Miami Center
05:08PM 27.4244 -81.2953 326° Northwest 421 484 38,500 960 Climbing Miami Center
05:09PM 27.5289 -81.3578 332° Northwest 426 490 39,600 1,020 Climbing Miami Center
05:10PM 27.6333 -81.4250 330° Northwest 426 490 40,600 960 Climbing Miami Center
05:11PM 27.7378 -81.4903 331° Northwest 426 490 41,600 960 Climbing Miami Center
05:12PM 27.8400 -81.5553 331° Northwest 426 490 42,600 660 Climbing Miami Center
05:13PM 27.9217 -81.6058 331° Northwest 426 490 43,000 540 Climbing Miami Center
05:16PM 28.1931 -81.7717 332° Northwest 419 482 44,600 660 Climbing Jacksonville Center
05:17PM 28.2958 -81.8247 336° Northwest 408 470 45,300 540 Climbing Jacksonville Center
05:18PM 28.4025 -81.8636 342° North 402 463 45,700 180 Climbing Jacksonville Center
05:19PM 28.5114 -81.9003 344° North 402 463 45,700  Level Jacksonville Center
05:20PM 28.6181 -81.9372 343° North 402 463 45,700  Level Jacksonville Center
05:21PM 28.7289 -81.9764 343° North 402 463 45,700  Level Jacksonville Center
05:22PM 28.8397 -82.0133 344° North 407 468 45,700  Level Jacksonville Center
05:23PM 28.9528 -82.0503 344° North 412 474 45,800 120 Climbing Jacksonville Center
05:24PM 29.0594 -82.0872 343° North 412 474 46,000 300 Climbing Jacksonville Center
05:25PM 29.1725 -82.1267 343° North 412 474 46,400 240 Climbing Jacksonville Center
05:26PM 29.2833 -82.1711 341° North 412 474 46,500 120 Climbing Jacksonville Center
05:27PM 29.3858 -82.2253 335° Northwest 412 474 46,700 120 Climbing Jacksonville Center
05:28PM 29.4906 -82.2769 337° Northwest 412 474 46,800 120 Climbing Jacksonville Center
05:29PM 29.5950 -82.3289 337° Northwest 412 474 47,000 60 Climbing Jacksonville Center
05:30PM 29.7017 -82.3786 338° Northwest 407 468 47,000  Level Jacksonville Center
05:31PM 29.8042 -82.4353 334° Northwest 407 468 47,000  Level Jacksonville Center
05:32PM 29.9089 -82.4925 335° Northwest 407 468 47,000  Level Jacksonville Center
05:33PM 30.0050 -82.5447 335° Northwest 407 468 47,000  Level Jacksonville Center
05:34PM 30.1056 -82.6092 331° Northwest 407 468 47,000  Level Jacksonville Center
05:35PM 30.2119 -82.6667 335° Northwest 412 474 47,000  Level Jacksonville Center
05:36PM 30.3164 -82.7267 334° Northwest 412 474 47,000  Level Jacksonville Center
05:37PM 30.4189 -82.7914 331° Northwest 412 474 47,000  Level Jacksonville Center
05:38PM 30.5233 -82.8539 333° Northwest 412 474 47,000  Level Jacksonville Center
05:39PM 30.6236 -82.9217 330° Northwest 412 474 47,000  Level Jacksonville Center
05:40PM 30.7300 -82.9747 337° Northwest 412 474 47,000  Level Jacksonville Center
05:41PM 30.8406 -83.0450 331° Northwest 412 474 47,000  Level Jacksonville Center
05:42PM 30.9450 -83.1081 333° Northwest 412 474 47,000  Level Jacksonville Center
05:43PM 31.0556 -83.1497 342° North 412 474 47,000  Level Jacksonville Center
05:44PM 31.1703 -83.1839 346° North 417 480 47,000  Level Jacksonville Center
05:45PM 31.2831 -83.2183 345° North 417 480 47,000  Level Jacksonville Center
05:46PM 31.4897 -83.2839 345° North 415 478 47,000  Level Atlanta Center
05:47PM 31.6067 -83.3219 345° North 415 478 47,000  Level Atlanta Center
05:48PM 31.7217 -83.3578 345° North 421 484 47,000  Level Atlanta Center
05:49PM 31.8389 -83.3933 346° North 421 484 47,000  Level Atlanta Center
05:50PM 31.9517 -83.4317 344° North 421 484 47,000  Level Atlanta Center
05:51PM 32.0708 -83.4703 345° North 421 484 47,000  Level Atlanta Center
05:52PM 32.1817 -83.5089 344° North 421 484 47,000  Level Atlanta Center
05:53PM 32.2967 -83.5450 345° North 421 484 47,000  Level Atlanta Center
05:54PM 32.4094 -83.5836 344° North 421 484 47,000  Level Atlanta Center
05:55PM 32.5244 -83.6225 344° North 421 484 47,000  Level Atlanta Center
05:56PM 32.6394 -83.6589 345° North 421 484 47,000  Level Atlanta Center
05:57PM 32.7522 -83.6956 345° North 421 484 47,000  Level Atlanta Center
05:58PM 32.8672 -83.7347 344° North 421 484 47,000  Level Atlanta Center
05:59PM 32.9800 -83.7714 345° North 421 484 47,000  Level Atlanta Center
06:00PM 33.0906 -83.8108 343° North 416 479 47,000  Level Atlanta Center
06:01PM 33.2056 -83.8500 345° North 416 479 47,000  Level Atlanta Center
06:02PM 33.2033 -83.8466 345° North  Level FlightAware Approximate
06:02PM 33.3183 -83.8847 346° North 422 486 47,000  Level Atlanta Center
06:03PM 33.4331 -83.9242 344° North 422 486 47,000  Level Atlanta Center
06:04PM 33.5481 -83.9617 345° North 422 486 47,000  Level Atlanta Center
06:05PM 33.6647 -83.9989 345° North 421 484 47,000  Level Atlanta Center
06:06PM 33.7817 -84.0364 345° North 426 490 47,000  Level Atlanta Center
06:07PM 33.8986 -84.0739 345° North 431 496 47,000  Level Atlanta Center
06:08PM 34.0156 -84.1089 346° North 436 502 47,000  Level Atlanta Center
06:09PM 34.1322 -84.1517 343° North 436 502 47,000  Level Atlanta Center
06:10PM 34.2511 -84.1947 343° North 436 502 47,000  Level Atlanta Center
06:11PM 34.3681 -84.2300 346° North 436 502 47,000  Level Atlanta Center
06:12PM 34.4850 -84.2606 348° North 429 494 47,000  Level Atlanta Center
06:13PM 34.6039 -84.2936 347° North 429 494 47,000  Level Atlanta Center
06:14PM 34.7103 -84.3217 348° North 429 494 47,000  Level Atlanta Center
06:15PM 34.8247 -84.3550 347° North 429 494 47,000  Level Atlanta Center
06:16PM 34.9394 -84.3911 346° North 432 497 47,000  Level Atlanta Center
06:17PM 35.0542 -84.4219 348° North 421 484 47,000  Level Atlanta Center
06:18PM 35.1731 -84.4556 347° North 421 484 47,000  Level Atlanta Center
06:19PM 35.2878 -84.4867 348° North 421 484 47,000  Level Atlanta Center
06:20PM 35.4064 -84.5178 348° North 421 484 47,000  Level Atlanta Center
06:21PM 35.5233 -84.5517 347° North 426 490 47,000  Level Atlanta Center
06:22PM 35.6419 -84.5856 347° North 431 496 47,000  Level Atlanta Center
06:23PM 35.7586 -84.6144 349° North 431 496 47,000  Level Atlanta Center
06:25PM 35.9444 -84.6692 347° North 431 496 47,000  Level Indianapolis Center
06:26PM 36.0603 -84.7014 347° North 432 497 47,000  Level Indianapolis Center
06:27PM 36.1747 -84.7353 347° North 429 494 47,000  Level Indianapolis Center
06:28PM 36.3125 -84.7744 347° North 425 489 47,000  Level Indianapolis Center
06:29PM 36.4272 -84.8072 347° North 423 487 47,000  Level Indianapolis Center
06:30PM 36.5411 -84.8414 346° North 422 486 47,000  Level Indianapolis Center
06:31PM 36.6564 -84.8742 347° North 424 488 47,000  Level Indianapolis Center
06:32PM 36.7725 -84.9069 347° North 427 491 47,000  Level Indianapolis Center
06:33PM 36.9111 -84.9492 346° North 427 491 47,000  Level Indianapolis Center
06:34PM 37.0269 -84.9828 347° North 428 493 47,000  Level Indianapolis Center
06:35PM 37.1464 -85.0164 347° North 429 494 47,000  Level Indianapolis Center
06:36PM 37.2628 -85.0517 346° North 429 494 47,000  Level Indianapolis Center
06:37PM 37.3806 -85.0853 347° North 432 497 47,000  Level Indianapolis Center
06:38PM 37.4983 -85.1217 346° North 433 498 47,000  Level Indianapolis Center
06:39PM 37.6164 -85.1550 347° North 431 496 47,000  Level Indianapolis Center
06:41PM 37.7536 -85.1972 346° North 433 498 47,000  Level Indianapolis Center
06:42PM 37.8686 -85.2317 347° North 435 501 47,000 -540 Level Indianapolis Center
06:43PM 37.9864 -85.2658 347° North 434 499 46,000 -1,740 Descending Indianapolis Center
06:44PM 38.1022 -85.3008 347° North 431 496 43,500 -2,400 Descending Indianapolis Center
06:45PM 38.2175 -85.3344 347° North 426 490 41,100 -2,400 Descending Indianapolis Center
06:46PM 38.3311 -85.3694 346° North 422 486 38,600 -2,700 Descending Indianapolis Center
06:47PM 38.4725 -85.4133 346° North 433 498 35,600 -1,800 Descending Indianapolis Center
06:48PM 38.5914 -85.4489 347° North 438 504 35,000 -300 Descending Indianapolis Center
06:49PM 38.7014 -85.4839 346° North 441 507 35,000  Level Indianapolis Center
06:50PM 38.8228 -85.5203 347° North 446 513 35,000  Level Indianapolis Center
06:51PM 38.9669 -85.5642 347° North 445 512 35,000 -840 Level Indianapolis Center
06:52PM 39.0844 -85.6008 346° North 439 505 33,300 -1,500 Descending Indianapolis Center
06:53PM 39.2033 -85.6378 346° North 439 505 32,000 -1,260 Descending Indianapolis Center
06:54PM 39.3253 -85.6764 346° North 451 519 30,700 -1,140 Descending Indianapolis Center
06:55PM 39.4467 -85.7139 347° North 452 520 29,700 -1,080 Descending Indianapolis Center
06:56PM 39.5914 -85.7592 346° North 451 519 28,500 -1,260 Descending Indianapolis Center
06:57PM 39.7108 -85.7967 346° North 447 514 27,100 -1,440 Descending Indianapolis Center
06:58PM 39.8294 -85.8339 346° North 445 512 25,600 -1,440 Descending Indianapolis Center
06:59PM 39.9489 -85.8725 346° North 448 516 24,200 -780 Descending Indianapolis Center
07:00PM 40.0908 -85.9169 347° North 442 509 24,000 -120 Descending Indianapolis Center
07:01PM 40.1611 -85.9386 347° North 440 506 24,000  Level Chicago Center
07:02PM 40.2733 -85.9917 340° North 435 501 24,000  Level Chicago Center
07:03PM 40.3783 -86.0531 336° Northwest 420 483 24,000 -300 Level Chicago Center
07:04PM 40.4831 -86.1131 336° Northwest 415 478 23,500 -1,680 Descending Chicago Center
07:05PM 40.6097 -86.1822 337° Northwest 414 476 20,600 -2,460 Descending Chicago Center
07:06PM 40.7028 -86.2367 336° Northwest 409 471 18,500 -2,040 Descending Chicago Center
07:07PM 40.8047 -86.2928 337° Northwest 397 457 16,500 -2,280 Descending Chicago Center
07:08PM 40.9219 -86.3597 337° Northwest 384 442 13,800 -2,400 Descending Chicago Center
07:09PM 41.0164 -86.4142 336° Northwest 373 429 11,600 -1,380 Descending Chicago Center
07:10PM 41.0808 -86.5050 313° West 357 411 11,000 -720 Descending Chicago Center
07:11PM 41.1392 -86.5997 309° West 336 387 10,100 -540 Descending Chicago Center
07:12PM 41.2017 -86.6908 312° West 333 383 10,000 -60 Descending Chicago Center
07:13PM 41.2683 -86.7869 313° West 332 382 10,000  Level Chicago Center
07:14PM 41.3289 -86.8789 311° West 331 381 10,000  Level Chicago Center
07:15PM 41.4003 -86.9844 312° West 323 372 10,000 -660 Level Chicago Center
07:16PM 41.4467 -87.0547 311° West 261 300 8,700 -1,560 Descending Chicago Center
07:17PM 41.4958 -87.1272 312° West 264 304 6,800 -1,320 Descending Chicago Center
07:18PM 41.5178 -87.2122 289° West 263 303 6,000 -540 Descending Chicago Center
07:19PM 41.5325 -87.3053 282° West 259 298 5,800 -960 Descending Chicago Center
07:20PM 41.5428 -87.4161 277° West 254 292 4,000 -900 Descending Chicago Center
07:22PM 41.5494 -87.5083 276° West 252 290 4,000  Level Chicago Center
07:23PM 41.5544 -87.5994 274° West 251 289 4,000  Level Chicago Center
07:24PM 41.5597 -87.6725 276° West 223 257 4,000  Level Chicago Center
07:25PM 41.5636 -87.7492 274° West 216 249 4,000  Level Chicago Center
07:26PM 41.5597 -87.8244 266° West 186 214 4,000  Level Chicago Center
07:27PM 41.5528 -87.8856 261° West 174 200 4,000  Level Chicago Center
07:28PM 41.5378 -87.9442 251° West 182 209 4,000  Level Chicago Center
07:29PM 41.5675 -87.9928 309° West 176 203 4,000  Level Chicago Center
07:30PM 41.6131 -87.9664 23° Northeast 183 211 4,000  Level Chicago Center
07:31PM 41.6567 -87.9153 41° Northeast 179 206 4,000 -420 Level Chicago Center
07:32PM 41.6878 -87.8756 44° Northeast 167 192 3,200 -840 Descending Chicago Center
07:33PM 41.7175 -87.8375 44° Northeast 158 182 2,300 -780 Descending Chicago Center
07:34PM 41.7450 -87.8042 42° Northeast 146 168 1,600 -660 Descending Chicago Center
07:35PM 41.7694 -87.7778 39° Northeast 129 148 1,000 -600 Descending Chicago Center